sensor_id;sensor_type;location;lat;lon;timestamp;P1;durP1;ratioP1;P2;durP2;ratioP2
26478;SDS011;14163;-26.142;27.992;2022-11-23T00:07:15;7.77;;;7.10;;
26478;SDS011;14163;-26.142;27.992;2022-11-23T00:09:44;9.97;;;7.10;;
26478;SDS011;14163;-26.142;27.992;2022-11-23T00:12:14;9.07;;;7.03;;
26478;SDS011;14163;-26.142;27.992;2022-11-23T00:14:44;7.60;;;6.87;;
26478;SDS011;14163;-26.142;27.992;2022-11-23T00:17:13;9.13;;;6.90;;
26478;SDS011;14163;-26.142;27.992;2022-11-23T00:19:42;9.23;;;6.60;;
26478;SDS011;14163;-26.142;27.992;2022-11-23T00:22:11;7.77;;;6.63;;
26478;SDS011;14163;-26.142;27.992;2022-11-23T00:24:42;7.83;;;6.50;;
26478;SDS011;14163;-26.142;27.992;2022-11-23T00:27:11;7.27;;;6.17;;
26478;SDS011;14163;-26.142;27.992;2022-11-23T00:29:40;6.80;;;6.20;;
26478;SDS011;14163;-26.142;27.992;2022-11-23T00:32:09;6.60;;;6.10;;
26478;SDS011;14163;-26.142;27.992;2022-11-23T00:34:38;7.53;;;6.83;;
26478;SDS011;14163;-26.142;27.992;2022-11-23T00:37:07;6.67;;;6.07;;
26478;SDS011;14163;-26.142;27.992;2022-11-23T00:39:38;6.83;;;5.90;;
26478;SDS011;14163;-26.142;27.992;2022-11-23T00:42:07;6.50;;;5.90;;
26478;SDS011;14163;-26.142;27.992;2022-11-23T00:44:36;7.50;;;6.37;;
26478;SDS011;14163;-26.142;27.992;2022-11-23T00:47:05;6.43;;;5.83;;
26478;SDS011;14163;-26.142;27.992;2022-11-23T00:49:34;6.53;;;5.93;;
26478;SDS011;14163;-26.142;27.992;2022-11-23T00:52:03;7.90;;;6.57;;
26478;SDS011;14163;-26.142;27.992;2022-11-23T00:54:32;8.90;;;6.83;;
26478;SDS011;14163;-26.142;27.992;2022-11-23T00:57:03;6.20;;;5.60;;
26478;SDS011;14163;-26.142;27.992;2022-11-23T00:59:32;6.97;;;6.20;;
26478;SDS011;14163;-26.142;27.992;2022-11-23T01:02:01;6.60;;;6.00;;
26478;SDS011;14163;-26.142;27.992;2022-11-23T01:04:30;6.40;;;5.80;;
26478;SDS011;14163;-26.142;27.992;2022-11-23T01:07:00;6.50;;;6.00;;
26478;SDS011;14163;-26.142;27.992;2022-11-23T01:09:29;7.37;;;6.73;;
26478;SDS011;14163;-26.142;27.992;2022-11-23T01:11:58;6.83;;;5.50;;
26478;SDS011;14163;-26.142;27.992;2022-11-23T01:14:29;7.93;;;6.10;;
26478;SDS011;14163;-26.142;27.992;2022-11-23T01:16:58;8.90;;;7.60;;
26478;SDS011;14163;-26.142;27.992;2022-11-23T01:19:27;9.93;;;7.50;;
26478;SDS011;14163;-26.142;27.992;2022-11-23T01:21:56;7.97;;;7.23;;
26478;SDS011;14163;-26.142;27.992;2022-11-23T01:24:25;7.90;;;7.20;;
26478;SDS011;14163;-26.142;27.992;2022-11-23T01:26:54;7.90;;;6.83;;
26478;SDS011;14163;-26.142;27.992;2022-11-23T01:29:24;8.87;;;6.90;;
26478;SDS011;14163;-26.142;27.992;2022-11-23T01:31:55;8.00;;;7.20;;
26478;SDS011;14163;-26.142;27.992;2022-11-23T01:34:24;8.40;;;7.70;;
26478;SDS011;14163;-26.142;27.992;2022-11-23T01:36:53;7.60;;;6.90;;
26478;SDS011;14163;-26.142;27.992;2022-11-23T01:39:22;8.10;;;7.33;;
26478;SDS011;14163;-26.142;27.992;2022-11-23T01:41:51;9.30;;;7.30;;
26478;SDS011;14163;-26.142;27.992;2022-11-23T01:44:22;8.23;;;7.03;;
26478;SDS011;14163;-26.142;27.992;2022-11-23T01:46:55;7.23;;;6.40;;
26478;SDS011;14163;-26.142;27.992;2022-11-23T01:49:26;10.40;;;6.73;;
26478;SDS011;14163;-26.142;27.992;2022-11-23T01:51:58;7.67;;;6.90;;
26478;SDS011;14163;-26.142;27.992;2022-11-23T01:54:31;7.80;;;6.90;;
26478;SDS011;14163;-26.142;27.992;2022-11-23T01:57:05;7.57;;;6.87;;
26478;SDS011;14163;-26.142;27.992;2022-11-23T01:59:38;7.50;;;6.80;;
26478;SDS011;14163;-26.142;27.992;2022-11-23T02:02:09;7.43;;;6.83;;
26478;SDS011;14163;-26.142;27.992;2022-11-23T02:04:39;7.23;;;6.60;;
26478;SDS011;14163;-26.142;27.992;2022-11-23T02:07:11;8.87;;;6.40;;
26478;SDS011;14163;-26.142;27.992;2022-11-23T02:09:41;8.00;;;7.20;;
26478;SDS011;14163;-26.142;27.992;2022-11-23T02:12:12;7.33;;;6.73;;
26478;SDS011;14163;-26.142;27.992;2022-11-23T02:14:41;8.00;;;6.70;;
26478;SDS011;14163;-26.142;27.992;2022-11-23T02:17:12;6.77;;;6.27;;
26478;SDS011;14163;-26.142;27.992;2022-11-23T02:19:44;7.17;;;6.57;;
26478;SDS011;14163;-26.142;27.992;2022-11-23T02:22:21;7.30;;;6.60;;
26478;SDS011;14163;-26.142;27.992;2022-11-23T02:24:55;8.33;;;6.70;;
26478;SDS011;14163;-26.142;27.992;2022-11-23T02:27:28;11.47;;;7.37;;
26478;SDS011;14163;-26.142;27.992;2022-11-23T02:29:57;12.30;;;7.30;;
26478;SDS011;14163;-26.142;27.992;2022-11-23T02:32:27;10.00;;;8.80;;
26478;SDS011;14163;-26.142;27.992;2022-11-23T02:34:57;9.23;;;8.33;;
26478;SDS011;14163;-26.142;27.992;2022-11-23T02:37:26;15.90;;;9.47;;
26478;SDS011;14163;-26.142;27.992;2022-11-23T02:39:56;8.10;;;7.00;;
26478;SDS011;14163;-26.142;27.992;2022-11-23T02:42:30;9.40;;;7.50;;
26478;SDS011;14163;-26.142;27.992;2022-11-23T02:45:02;12.20;;;11.00;;
26478;SDS011;14163;-26.142;27.992;2022-11-23T02:47:35;12.80;;;10.03;;
26478;SDS011;14163;-26.142;27.992;2022-11-23T02:50:05;10.60;;;8.63;;
26478;SDS011;14163;-26.142;27.992;2022-11-23T02:52:34;11.07;;;9.97;;
26478;SDS011;14163;-26.142;27.992;2022-11-23T02:55:03;10.47;;;9.30;;
26478;SDS011;14163;-26.142;27.992;2022-11-23T02:57:35;9.43;;;7.90;;
26478;SDS011;14163;-26.142;27.992;2022-11-23T03:00:04;11.03;;;8.77;;
26478;SDS011;14163;-26.142;27.992;2022-11-23T03:02:34;9.90;;;8.90;;
26478;SDS011;14163;-26.142;27.992;2022-11-23T03:05:03;9.03;;;8.13;;
26478;SDS011;14163;-26.142;27.992;2022-11-23T03:07:33;11.17;;;8.73;;
26478;SDS011;14163;-26.142;27.992;2022-11-23T03:10:02;7.90;;;7.17;;
26478;SDS011;14163;-26.142;27.992;2022-11-23T03:12:34;8.60;;;7.80;;
26478;SDS011;14163;-26.142;27.992;2022-11-23T03:15:03;9.60;;;7.47;;
26478;SDS011;14163;-26.142;27.992;2022-11-23T03:17:33;10.10;;;9.10;;
26478;SDS011;14163;-26.142;27.992;2022-11-23T03:20:02;9.93;;;8.93;;
26478;SDS011;14163;-26.142;27.992;2022-11-23T03:22:32;8.67;;;7.97;;
26478;SDS011;14163;-26.142;27.992;2022-11-23T03:25:02;8.00;;;7.20;;
26478;SDS011;14163;-26.142;27.992;2022-11-23T03:27:31;11.13;;;9.00;;
26478;SDS011;14163;-26.142;27.992;2022-11-23T03:30:02;9.13;;;8.23;;
26478;SDS011;14163;-26.142;27.992;2022-11-23T03:32:32;8.30;;;7.43;;
26478;SDS011;14163;-26.142;27.992;2022-11-23T03:35:01;9.23;;;8.43;;
26478;SDS011;14163;-26.142;27.992;2022-11-23T03:37:31;8.77;;;7.97;;
26478;SDS011;14163;-26.142;27.992;2022-11-23T03:40:00;8.13;;;7.40;;
26478;SDS011;14163;-26.142;27.992;2022-11-23T03:42:29;8.40;;;7.57;;
26478;SDS011;14163;-26.142;27.992;2022-11-23T03:45:00;10.37;;;8.10;;
26478;SDS011;14163;-26.142;27.992;2022-11-23T03:47:29;10.20;;;9.20;;
26478;SDS011;14163;-26.142;27.992;2022-11-23T03:49:58;9.37;;;8.27;;
26478;SDS011;14163;-26.142;27.992;2022-11-23T03:52:28;8.90;;;8.00;;
26478;SDS011;14163;-26.142;27.992;2022-11-23T03:54:57;10.03;;;8.20;;
26478;SDS011;14163;-26.142;27.992;2022-11-23T03:57:26;10.97;;;9.07;;
26478;SDS011;14163;-26.142;27.992;2022-11-23T03:59:55;8.07;;;7.27;;
26478;SDS011;14163;-26.142;27.992;2022-11-23T04:02:26;8.93;;;8.13;;
26478;SDS011;14163;-26.142;27.992;2022-11-23T04:04:55;9.23;;;8.40;;
26478;SDS011;14163;-26.142;27.992;2022-11-23T04:07:24;11.60;;;7.57;;
26478;SDS011;14163;-26.142;27.992;2022-11-23T04:09:53;9.40;;;8.50;;
26478;SDS011;14163;-26.142;27.992;2022-11-23T04:12:22;10.27;;;8.50;;
26478;SDS011;14163;-26.142;27.992;2022-11-23T04:14:52;9.07;;;7.83;;
26478;SDS011;14163;-26.142;27.992;2022-11-23T04:17:21;9.57;;;8.63;;
26478;SDS011;14163;-26.142;27.992;2022-11-23T04:19:52;10.50;;;9.47;;
26478;SDS011;14163;-26.142;27.992;2022-11-23T04:22:21;9.90;;;8.90;;
26478;SDS011;14163;-26.142;27.992;2022-11-23T04:24:50;10.10;;;9.10;;
26478;SDS011;14163;-26.142;27.992;2022-11-23T04:27:19;11.10;;;8.83;;
26478;SDS011;14163;-26.142;27.992;2022-11-23T04:29:48;9.73;;;8.77;;
26478;SDS011;14163;-26.142;27.992;2022-11-23T04:32:18;11.50;;;9.80;;
26478;SDS011;14163;-26.142;27.992;2022-11-23T04:34:47;10.40;;;9.23;;
26478;SDS011;14163;-26.142;27.992;2022-11-23T04:37:17;11.00;;;9.67;;
26478;SDS011;14163;-26.142;27.992;2022-11-23T04:39:47;9.80;;;8.57;;
26478;SDS011;14163;-26.142;27.992;2022-11-23T04:42:16;10.10;;;8.87;;
26478;SDS011;14163;-26.142;27.992;2022-11-23T04:44:45;12.27;;;9.60;;
26478;SDS011;14163;-26.142;27.992;2022-11-23T04:47:14;11.73;;;9.70;;
26478;SDS011;14163;-26.142;27.992;2022-11-23T04:49:43;11.10;;;10.00;;
26478;SDS011;14163;-26.142;27.992;2022-11-23T04:52:12;10.40;;;9.50;;
26478;SDS011;14163;-26.142;27.992;2022-11-23T04:54:43;10.57;;;9.10;;
26478;SDS011;14163;-26.142;27.992;2022-11-23T04:57:12;10.73;;;9.63;;
26478;SDS011;14163;-26.142;27.992;2022-11-23T04:59:41;13.87;;;10.07;;
26478;SDS011;14163;-26.142;27.992;2022-11-23T05:02:11;12.20;;;10.40;;
26478;SDS011;14163;-26.142;27.992;2022-11-23T05:04:40;11.00;;;9.90;;
26478;SDS011;14163;-26.142;27.992;2022-11-23T05:07:09;12.00;;;10.73;;
26478;SDS011;14163;-26.142;27.992;2022-11-23T05:09:39;11.60;;;10.40;;
26478;SDS011;14163;-26.142;27.992;2022-11-23T05:12:10;11.30;;;10.17;;
26478;SDS011;14163;-26.142;27.992;2022-11-23T05:14:39;12.50;;;11.30;;
26478;SDS011;14163;-26.142;27.992;2022-11-23T05:18:22;11.73;;;10.53;;
26478;SDS011;14163;-26.142;27.992;2022-11-23T05:20:52;15.53;;;12.20;;
26478;SDS011;14163;-26.142;27.992;2022-11-23T05:23:21;13.90;;;12.50;;
26478;SDS011;14163;-26.142;27.992;2022-11-23T05:25:51;13.23;;;11.20;;
26478;SDS011;14163;-26.142;27.992;2022-11-23T05:28:20;16.20;;;12.20;;
26478;SDS011;14163;-26.142;27.992;2022-11-23T05:30:50;15.07;;;13.23;;
26478;SDS011;14163;-26.142;27.992;2022-11-23T05:33:19;13.50;;;12.10;;
26478;SDS011;14163;-26.142;27.992;2022-11-23T05:35:50;14.40;;;12.80;;
26478;SDS011;14163;-26.142;27.992;2022-11-23T05:38:19;15.77;;;13.43;;
26478;SDS011;14163;-26.142;27.992;2022-11-23T05:40:49;13.30;;;12.00;;
26478;SDS011;14163;-26.142;27.992;2022-11-23T05:44:59;14.70;;;13.20;;
26478;SDS011;14163;-26.142;27.992;2022-11-23T05:47:28;17.43;;;14.10;;
26478;SDS011;14163;-26.142;27.992;2022-11-23T05:49:58;20.23;;;15.20;;
26478;SDS011;14163;-26.142;27.992;2022-11-23T05:52:27;27.70;;;16.80;;
26478;SDS011;14163;-26.142;27.992;2022-11-23T05:54:56;20.10;;;17.87;;
26478;SDS011;14163;-26.142;27.992;2022-11-23T05:57:25;19.30;;;17.00;;
26478;SDS011;14163;-26.142;27.992;2022-11-23T05:59:54;17.10;;;15.17;;
26478;SDS011;14163;-26.142;27.992;2022-11-23T06:02:25;17.83;;;15.90;;
26478;SDS011;14163;-26.142;27.992;2022-11-23T08:10:23;17.90;;;15.60;;
26478;SDS011;14163;-26.142;27.992;2022-11-23T08:12:55;18.50;;;16.70;;
26478;SDS011;14163;-26.142;27.992;2022-11-23T08:15:25;20.60;;;16.53;;
26478;SDS011;14163;-26.142;27.992;2022-11-23T08:17:54;22.33;;;16.43;;
26478;SDS011;14163;-26.142;27.992;2022-11-23T08:20:24;19.30;;;17.30;;
26478;SDS011;14163;-26.142;27.992;2022-11-23T08:22:53;19.20;;;17.33;;
26478;SDS011;14163;-26.142;27.992;2022-11-23T08:25:25;21.63;;;17.90;;
26478;SDS011;14163;-26.142;27.992;2022-11-23T08:27:56;19.07;;;16.80;;
26478;SDS011;14163;-26.142;27.992;2022-11-23T08:30:26;22.63;;;17.87;;
26478;SDS011;14163;-26.142;27.992;2022-11-23T08:32:56;24.97;;;22.00;;
26478;SDS011;14163;-26.142;27.992;2022-11-23T08:35:25;19.17;;;17.27;;
26478;SDS011;14163;-26.142;27.992;2022-11-23T08:37:54;19.73;;;17.20;;
26478;SDS011;14163;-26.142;27.992;2022-11-23T08:40:25;19.03;;;16.73;;
26478;SDS011;14163;-26.142;27.992;2022-11-23T08:42:54;19.97;;;17.77;;
26478;SDS011;14163;-26.142;27.992;2022-11-23T08:45:23;21.00;;;18.07;;
26478;SDS011;14163;-26.142;27.992;2022-11-23T08:47:53;20.67;;;16.70;;
26478;SDS011;14163;-26.142;27.992;2022-11-23T08:50:26;21.07;;;17.57;;
26478;SDS011;14163;-26.142;27.992;2022-11-23T08:52:56;18.77;;;16.77;;
26478;SDS011;14163;-26.142;27.992;2022-11-23T08:55:28;22.10;;;19.80;;
26478;SDS011;14163;-26.142;27.992;2022-11-23T08:57:57;33.57;;;30.30;;
26478;SDS011;14163;-26.142;27.992;2022-11-23T09:00:26;21.73;;;19.43;;
26478;SDS011;14163;-26.142;27.992;2022-11-23T09:02:56;21.70;;;19.50;;
26478;SDS011;14163;-26.142;27.992;2022-11-23T09:05:25;22.10;;;19.10;;
26478;SDS011;14163;-26.142;27.992;2022-11-23T09:07:55;17.40;;;15.90;;
26478;SDS011;14163;-26.142;27.992;2022-11-23T09:10:29;20.27;;;18.47;;
26478;SDS011;14163;-26.142;27.992;2022-11-23T09:12:58;19.27;;;17.47;;
26478;SDS011;14163;-26.142;27.992;2022-11-23T09:15:28;20.33;;;17.53;;
26478;SDS011;14163;-26.142;27.992;2022-11-23T09:17:57;19.93;;;17.87;;
26478;SDS011;14163;-26.142;27.992;2022-11-23T09:20:26;18.63;;;16.50;;
26478;SDS011;14163;-26.142;27.992;2022-11-23T09:22:55;18.43;;;16.87;;
26478;SDS011;14163;-26.142;27.992;2022-11-23T09:25:24;17.30;;;15.80;;
26478;SDS011;14163;-26.142;27.992;2022-11-23T09:27:57;20.63;;;16.63;;
26478;SDS011;14163;-26.142;27.992;2022-11-23T09:30:26;16.90;;;14.70;;
26478;SDS011;14163;-26.142;27.992;2022-11-23T09:32:55;18.07;;;16.37;;
26478;SDS011;14163;-26.142;27.992;2022-11-23T09:35:25;18.57;;;16.93;;
26478;SDS011;14163;-26.142;27.992;2022-11-23T09:37:54;19.10;;;17.10;;
26478;SDS011;14163;-26.142;27.992;2022-11-23T09:40:24;16.70;;;15.20;;
26478;SDS011;14163;-26.142;27.992;2022-11-23T09:43:06;19.33;;;17.50;;
26478;SDS011;14163;-26.142;27.992;2022-11-23T09:45:55;19.30;;;17.63;;
26478;SDS011;14163;-26.142;27.992;2022-11-23T09:48:31;19.47;;;17.50;;
26478;SDS011;14163;-26.142;27.992;2022-11-23T09:51:13;17.53;;;16.00;;
26478;SDS011;14163;-26.142;27.992;2022-11-23T09:53:44;19.27;;;17.57;;
26478;SDS011;14163;-26.142;27.992;2022-11-23T09:56:17;17.63;;;16.13;;
26478;SDS011;14163;-26.142;27.992;2022-11-23T09:58:52;18.30;;;16.57;;
26478;SDS011;14163;-26.142;27.992;2022-11-23T10:01:22;18.03;;;16.43;;
26478;SDS011;14163;-26.142;27.992;2022-11-23T10:03:53;18.33;;;15.27;;
26478;SDS011;14163;-26.142;27.992;2022-11-23T10:06:23;17.40;;;15.87;;
26478;SDS011;14163;-26.142;27.992;2022-11-23T10:14:55;17.97;;;16.17;;
26478;SDS011;14163;-26.142;27.992;2022-11-23T10:17:35;16.60;;;15.20;;
26478;SDS011;14163;-26.142;27.992;2022-11-23T10:23:28;17.30;;;15.80;;
26478;SDS011;14163;-26.142;27.992;2022-11-23T10:26:11;15.40;;;14.10;;
26478;SDS011;14163;-26.142;27.992;2022-11-23T10:28:44;16.03;;;14.53;;
26478;SDS011;14163;-26.142;27.992;2022-11-23T10:31:16;17.03;;;15.53;;
26478;SDS011;14163;-26.142;27.992;2022-11-23T10:33:53;15.57;;;14.27;;
26478;SDS011;14163;-26.142;27.992;2022-11-23T10:36:28;16.80;;;15.23;;
26478;SDS011;14163;-26.142;27.992;2022-11-23T10:38:58;16.67;;;15.07;;
26478;SDS011;14163;-26.142;27.992;2022-11-23T10:41:29;17.47;;;16.00;;
26478;SDS011;14163;-26.142;27.992;2022-11-23T10:44:00;14.63;;;13.30;;
26478;SDS011;14163;-26.142;27.992;2022-11-23T10:46:38;14.17;;;12.80;;
26478;SDS011;14163;-26.142;27.992;2022-11-23T10:49:09;15.47;;;14.07;;
26478;SDS011;14163;-26.142;27.992;2022-11-23T10:51:50;15.90;;;14.60;;
26478;SDS011;14163;-26.142;27.992;2022-11-23T10:54:21;17.03;;;15.60;;
26478;SDS011;14163;-26.142;27.992;2022-11-23T10:56:57;15.90;;;14.50;;
26478;SDS011;14163;-26.142;27.992;2022-11-23T10:59:29;16.40;;;14.90;;
26478;SDS011;14163;-26.142;27.992;2022-11-23T11:02:07;16.30;;;14.90;;
26478;SDS011;14163;-26.142;27.992;2022-11-23T11:04:42;17.43;;;15.93;;
26478;SDS011;14163;-26.142;27.992;2022-11-23T11:07:21;15.40;;;14.20;;
26478;SDS011;14163;-26.142;27.992;2022-11-23T11:09:56;15.67;;;14.17;;
26478;SDS011;14163;-26.142;27.992;2022-11-23T11:12:26;18.23;;;16.40;;
26478;SDS011;14163;-26.142;27.992;2022-11-23T11:15:00;15.43;;;14.23;;
26478;SDS011;14163;-26.142;27.992;2022-11-23T11:17:42;16.17;;;14.77;;
26478;SDS011;14163;-26.142;27.992;2022-11-23T11:20:28;16.27;;;14.87;;
26478;SDS011;14163;-26.142;27.992;2022-11-23T11:22:58;16.80;;;15.60;;
26478;SDS011;14163;-26.142;27.992;2022-11-23T11:25:30;16.93;;;15.47;;
26478;SDS011;14163;-26.142;27.992;2022-11-23T11:28:01;16.57;;;14.93;;
26478;SDS011;14163;-26.142;27.992;2022-11-23T11:30:35;15.73;;;14.37;;
26478;SDS011;14163;-26.142;27.992;2022-11-23T11:33:10;17.87;;;16.23;;
26478;SDS011;14163;-26.142;27.992;2022-11-23T11:35:45;17.13;;;15.60;;
26478;SDS011;14163;-26.142;27.992;2022-11-23T11:38:18;16.77;;;15.27;;
26478;SDS011;14163;-26.142;27.992;2022-11-23T11:40:52;17.77;;;15.53;;
26478;SDS011;14163;-26.142;27.992;2022-11-23T11:43:24;16.70;;;15.30;;
26478;SDS011;14163;-26.142;27.992;2022-11-23T11:45:59;17.00;;;15.50;;
26478;SDS011;14163;-26.142;27.992;2022-11-23T11:48:34;18.13;;;16.30;;
26478;SDS011;14163;-26.142;27.992;2022-11-23T11:51:06;18.63;;;17.03;;
26478;SDS011;14163;-26.142;27.992;2022-11-23T11:53:41;18.33;;;16.73;;
26478;SDS011;14163;-26.142;27.992;2022-11-23T11:56:15;16.27;;;14.87;;
26478;SDS011;14163;-26.142;27.992;2022-11-23T11:58:50;17.93;;;16.33;;
26478;SDS011;14163;-26.142;27.992;2022-11-23T12:01:28;16.30;;;15.07;;
26478;SDS011;14163;-26.142;27.992;2022-11-23T12:04:06;16.07;;;14.80;;
26478;SDS011;14163;-26.142;27.992;2022-11-23T12:06:42;17.43;;;15.83;;
26478;SDS011;14163;-26.142;27.992;2022-11-23T12:09:17;16.73;;;15.23;;
26478;SDS011;14163;-26.142;27.992;2022-11-23T12:11:49;15.03;;;13.93;;
26478;SDS011;14163;-26.142;27.992;2022-11-23T12:14:18;16.90;;;15.50;;
26478;SDS011;14163;-26.142;27.992;2022-11-23T12:16:50;16.70;;;15.10;;
26478;SDS011;14163;-26.142;27.992;2022-11-23T12:19:27;16.50;;;15.20;;
26478;SDS011;14163;-26.142;27.992;2022-11-23T12:25:04;15.73;;;14.53;;
26478;SDS011;14163;-26.142;27.992;2022-11-23T12:27:44;14.83;;;13.73;;
26478;SDS011;14163;-26.142;27.992;2022-11-23T12:30:23;14.67;;;13.53;;
26478;SDS011;14163;-26.142;27.992;2022-11-23T12:33:11;15.33;;;14.23;;
26478;SDS011;14163;-26.142;27.992;2022-11-23T12:35:57;16.23;;;14.90;;
26478;SDS011;14163;-26.142;27.992;2022-11-23T12:38:39;16.10;;;14.90;;
26478;SDS011;14163;-26.142;27.992;2022-11-23T12:41:20;15.70;;;14.23;;
26478;SDS011;14163;-26.142;27.992;2022-11-23T12:47:15;14.63;;;13.53;;
26478;SDS011;14163;-26.142;27.992;2022-11-23T12:49:58;16.07;;;14.83;;
26478;SDS011;14163;-26.142;27.992;2022-11-23T12:52:41;14.93;;;13.90;;
26478;SDS011;14163;-26.142;27.992;2022-11-23T12:55:22;14.63;;;13.63;;
26478;SDS011;14163;-26.142;27.992;2022-11-23T12:57:55;14.87;;;13.50;;
26478;SDS011;14163;-26.142;27.992;2022-11-23T13:00:33;15.60;;;14.30;;
26478;SDS011;14163;-26.142;27.992;2022-11-23T13:09:47;16.03;;;14.57;;
26478;SDS011;14163;-26.142;27.992;2022-11-23T13:12:40;16.33;;;14.93;;
26478;SDS011;14163;-26.142;27.992;2022-11-23T13:15:32;16.37;;;15.03;;
26478;SDS011;14163;-26.142;27.992;2022-11-23T13:18:14;15.17;;;13.60;;
26478;SDS011;14163;-26.142;27.992;2022-11-23T13:23:45;15.00;;;13.70;;
26478;SDS011;14163;-26.142;27.992;2022-11-23T13:26:16;15.23;;;14.00;;
26478;SDS011;14163;-26.142;27.992;2022-11-23T13:28:47;16.00;;;14.50;;
26478;SDS011;14163;-26.142;27.992;2022-11-23T13:31:21;15.67;;;14.47;;
26478;SDS011;14163;-26.142;27.992;2022-11-23T13:33:52;16.67;;;15.27;;
26478;SDS011;14163;-26.142;27.992;2022-11-23T13:36:41;13.57;;;12.57;;
26478;SDS011;14163;-26.142;27.992;2022-11-23T13:42:33;14.20;;;13.10;;
26478;SDS011;14163;-26.142;27.992;2022-11-23T13:48:03;15.00;;;13.80;;
26478;SDS011;14163;-26.142;27.992;2022-11-23T13:50:38;15.37;;;14.17;;
26478;SDS011;14163;-26.142;27.992;2022-11-23T13:53:22;15.67;;;14.37;;
26478;SDS011;14163;-26.142;27.992;2022-11-23T13:55:55;16.37;;;14.87;;
26478;SDS011;14163;-26.142;27.992;2022-11-23T13:58:39;15.67;;;14.27;;
26478;SDS011;14163;-26.142;27.992;2022-11-23T14:04:20;15.83;;;14.73;;
26478;SDS011;14163;-26.142;27.992;2022-11-23T16:08:23;19.67;;;17.67;;
26478;SDS011;14163;-26.142;27.992;2022-11-23T16:10:53;19.20;;;17.53;;
26478;SDS011;14163;-26.142;27.992;2022-11-23T16:13:32;21.70;;;19.60;;
26478;SDS011;14163;-26.142;27.992;2022-11-23T16:16:03;18.13;;;16.57;;
26478;SDS011;14163;-26.142;27.992;2022-11-23T16:18:35;20.00;;;18.30;;
26478;SDS011;14163;-26.142;27.992;2022-11-23T16:21:13;19.47;;;17.87;;
26478;SDS011;14163;-26.142;27.992;2022-11-23T16:23:46;18.70;;;17.40;;
26478;SDS011;14163;-26.142;27.992;2022-11-23T16:26:19;20.07;;;18.47;;
26478;SDS011;14163;-26.142;27.992;2022-11-23T16:28:56;17.83;;;16.33;;
26478;SDS011;14163;-26.142;27.992;2022-11-23T16:31:26;18.17;;;16.50;;
26478;SDS011;14163;-26.142;27.992;2022-11-23T16:33:56;17.30;;;15.90;;
26478;SDS011;14163;-26.142;27.992;2022-11-23T16:36:25;19.17;;;17.73;;
26478;SDS011;14163;-26.142;27.992;2022-11-23T16:38:56;18.90;;;17.00;;
26478;SDS011;14163;-26.142;27.992;2022-11-23T16:41:26;17.80;;;16.60;;
26478;SDS011;14163;-26.142;27.992;2022-11-23T16:43:55;19.20;;;17.57;;
26478;SDS011;14163;-26.142;27.992;2022-11-23T16:46:24;17.40;;;16.10;;
26478;SDS011;14163;-26.142;27.992;2022-11-23T16:48:53;18.83;;;17.40;;
26478;SDS011;14163;-26.142;27.992;2022-11-23T16:51:23;21.63;;;19.70;;
26478;SDS011;14163;-26.142;27.992;2022-11-23T16:53:53;19.23;;;17.60;;
26478;SDS011;14163;-26.142;27.992;2022-11-23T16:56:25;18.57;;;17.20;;
26478;SDS011;14163;-26.142;27.992;2022-11-23T16:58:55;21.23;;;19.43;;
26478;SDS011;14163;-26.142;27.992;2022-11-23T17:01:24;22.97;;;20.63;;
26478;SDS011;14163;-26.142;27.992;2022-11-23T17:03:54;21.50;;;19.70;;
26478;SDS011;14163;-26.142;27.992;2022-11-23T17:06:23;21.97;;;19.70;;
26478;SDS011;14163;-26.142;27.992;2022-11-23T17:08:52;21.87;;;20.03;;
26478;SDS011;14163;-26.142;27.992;2022-11-23T17:11:25;22.90;;;21.10;;
26478;SDS011;14163;-26.142;27.992;2022-11-23T17:13:54;22.73;;;20.73;;
26478;SDS011;14163;-26.142;27.992;2022-11-23T17:16:25;21.73;;;20.03;;
26478;SDS011;14163;-26.142;27.992;2022-11-23T17:18:54;19.90;;;18.17;;
26478;SDS011;14163;-26.142;27.992;2022-11-23T17:21:23;23.97;;;21.60;;
26478;SDS011;14163;-26.142;27.992;2022-11-23T17:23:52;27.27;;;24.47;;
26478;SDS011;14163;-26.142;27.992;2022-11-23T17:26:28;27.63;;;25.00;;
26478;SDS011;14163;-26.142;27.992;2022-11-23T17:29:00;30.87;;;27.53;;
26478;SDS011;14163;-26.142;27.992;2022-11-23T17:31:30;43.80;;;38.83;;
26478;SDS011;14163;-26.142;27.992;2022-11-23T17:33:59;39.07;;;32.40;;
26478;SDS011;14163;-26.142;27.992;2022-11-23T17:36:28;28.63;;;25.93;;
26478;SDS011;14163;-26.142;27.992;2022-11-23T17:38:58;26.77;;;24.07;;
26478;SDS011;14163;-26.142;27.992;2022-11-23T17:41:29;25.33;;;22.70;;
26478;SDS011;14163;-26.142;27.992;2022-11-23T17:43:58;25.17;;;23.17;;
26478;SDS011;14163;-26.142;27.992;2022-11-23T17:46:27;27.73;;;25.03;;
26478;SDS011;14163;-26.142;27.992;2022-11-23T17:48:58;27.40;;;24.73;;
26478;SDS011;14163;-26.142;27.992;2022-11-23T17:51:28;27.07;;;24.77;;
26478;SDS011;14163;-26.142;27.992;2022-11-23T17:53:57;24.97;;;22.97;;
26478;SDS011;14163;-26.142;27.992;2022-11-23T17:56:26;25.23;;;22.77;;
26478;SDS011;14163;-26.142;27.992;2022-11-23T17:58:57;24.70;;;22.27;;
26478;SDS011;14163;-26.142;27.992;2022-11-23T18:01:26;24.33;;;22.33;;
26478;SDS011;14163;-26.142;27.992;2022-11-23T18:03:55;25.93;;;23.43;;
26478;SDS011;14163;-26.142;27.992;2022-11-23T18:06:25;24.97;;;22.80;;
26478;SDS011;14163;-26.142;27.992;2022-11-23T18:08:55;23.60;;;21.50;;
26478;SDS011;14163;-26.142;27.992;2022-11-23T18:11:24;26.63;;;24.23;;
26478;SDS011;14163;-26.142;27.992;2022-11-23T18:13:55;27.87;;;25.43;;
26478;SDS011;14163;-26.142;27.992;2022-11-23T18:16:24;29.67;;;26.90;;
26478;SDS011;14163;-26.142;27.992;2022-11-23T18:18:54;26.27;;;23.87;;
26478;SDS011;14163;-26.142;27.992;2022-11-23T18:21:23;26.77;;;24.27;;
26478;SDS011;14163;-26.142;27.992;2022-11-23T18:23:52;27.23;;;24.83;;
26478;SDS011;14163;-26.142;27.992;2022-11-23T18:26:21;28.47;;;25.97;;
26478;SDS011;14163;-26.142;27.992;2022-11-23T18:28:52;28.17;;;25.47;;
26478;SDS011;14163;-26.142;27.992;2022-11-23T18:31:24;29.57;;;26.63;;
26478;SDS011;14163;-26.142;27.992;2022-11-23T18:33:53;28.50;;;26.00;;
26478;SDS011;14163;-26.142;27.992;2022-11-23T18:36:23;29.00;;;26.60;;
26478;SDS011;14163;-26.142;27.992;2022-11-23T18:38:52;27.50;;;25.00;;
26478;SDS011;14163;-26.142;27.992;2022-11-23T18:41:21;27.27;;;24.97;;
26478;SDS011;14163;-26.142;27.992;2022-11-23T18:43:51;27.07;;;24.47;;
26478;SDS011;14163;-26.142;27.992;2022-11-23T18:46:20;26.17;;;23.97;;
26478;SDS011;14163;-26.142;27.992;2022-11-23T18:48:50;26.63;;;24.27;;
26478;SDS011;14163;-26.142;27.992;2022-11-23T18:51:21;26.67;;;24.27;;
26478;SDS011;14163;-26.142;27.992;2022-11-23T18:53:51;27.13;;;24.73;;
26478;SDS011;14163;-26.142;27.992;2022-11-23T18:56:20;26.90;;;24.63;;
26478;SDS011;14163;-26.142;27.992;2022-11-23T18:58:49;26.27;;;23.87;;
26478;SDS011;14163;-26.142;27.992;2022-11-23T19:01:19;26.17;;;23.87;;
26478;SDS011;14163;-26.142;27.992;2022-11-23T19:03:51;25.97;;;23.63;;
26478;SDS011;14163;-26.142;27.992;2022-11-23T19:06:21;26.13;;;24.03;;
26478;SDS011;14163;-26.142;27.992;2022-11-23T19:08:51;26.77;;;24.27;;
26478;SDS011;14163;-26.142;27.992;2022-11-23T19:11:23;25.83;;;23.53;;
26478;SDS011;14163;-26.142;27.992;2022-11-23T19:13:53;26.57;;;24.13;;
26478;SDS011;14163;-26.142;27.992;2022-11-23T19:16:26;28.00;;;25.40;;
26478;SDS011;14163;-26.142;27.992;2022-11-23T19:18:58;26.87;;;24.47;;